createdAt,value
2023-02-08T00:01:15.254Z,0.73
2023-02-08T00:03:43.993Z,0.72
2023-02-08T00:06:13.121Z,0.67
2023-02-08T00:08:41.445Z,0.68
2023-02-08T00:11:13.135Z,0.67
2023-02-08T00:13:42.278Z,0.66
2023-02-08T00:16:12.769Z,0.66
2023-02-08T00:18:41.589Z,0.64
2023-02-08T00:21:11.876Z,0.64
2023-02-08T00:23:40.483Z,0.66
2023-02-08T00:26:09.206Z,0.67
2023-02-08T00:28:37.183Z,0.64
2023-02-08T00:31:06.148Z,0.61
2023-02-08T00:33:35.892Z,0.56
2023-02-08T00:36:06.732Z,0.52
2023-02-08T00:38:35.473Z,0.51
2023-02-08T00:41:03.568Z,0.47
2023-02-08T00:43:31.760Z,0.45
2023-02-08T00:46:00.745Z,0.41
2023-02-08T00:48:29.201Z,0.36
2023-02-08T00:51:02.279Z,0.34
2023-02-08T00:53:30.273Z,0.32
2023-02-08T00:55:58.214Z,0.27
2023-02-08T00:58:26.853Z,0.23
2023-02-08T01:00:55.197Z,0.23
2023-02-08T01:03:23.980Z,0.27
2023-02-08T01:05:52.559Z,0.27
2023-02-08T01:08:22.082Z,0.27
2023-02-08T01:10:50.180Z,0.27
2023-02-08T01:13:18.279Z,0.29
2023-02-08T01:15:46.230Z,0.29
2023-02-08T01:18:14.142Z,0.27
2023-02-08T01:20:42.896Z,0.23
2023-02-08T01:23:10.833Z,0.22
2023-02-08T01:25:39.486Z,0.21
2023-02-08T01:28:07.370Z,0.24
2023-02-08T01:30:35.313Z,0.26
2023-02-08T01:33:03.233Z,0.30
2023-02-08T01:35:31.094Z,0.33
2023-02-08T01:37:58.950Z,0.29
2023-02-08T01:40:26.831Z,0.21
2023-02-08T01:42:54.656Z,0.13
2023-02-08T01:45:29.987Z,0.04
2023-02-08T01:48:10.621Z,-0.00
2023-02-08T01:51:09.357Z,0.00
2023-02-08T01:53:39.991Z,0.01
2023-02-08T01:56:12.707Z,0.00
2023-02-08T01:58:45.389Z,-0.01
2023-02-08T02:01:14.471Z,-0.04
2023-02-08T02:03:43.187Z,-0.08
2023-02-08T02:06:15.410Z,-0.10
2023-02-08T02:08:55.918Z,-0.15
2023-02-08T02:11:24.563Z,-0.18
2023-02-08T02:13:54.834Z,-0.18
2023-02-08T02:16:22.823Z,-0.16
2023-02-08T02:18:52.299Z,-0.18
2023-02-08T02:21:52.100Z,-0.23
2023-02-08T02:24:28.784Z,-0.30
2023-02-08T02:27:15.139Z,-0.36
2023-02-08T02:30:14.090Z,-0.38
2023-02-08T02:32:58.041Z,-0.41
2023-02-08T02:35:39.438Z,-0.41
2023-02-08T02:38:12.537Z,-0.37
2023-02-08T02:40:51.576Z,-0.36
2023-02-08T02:43:38.083Z,-0.39
2023-02-08T02:46:14.905Z,-0.39
2023-02-08T02:49:04.204Z,-0.39
2023-02-08T02:51:41.303Z,-0.37
2023-02-08T02:54:24.496Z,-0.38
2023-02-08T02:56:56.569Z,-0.39
2023-02-08T02:59:25.559Z,-0.40
2023-02-08T03:01:55.150Z,-0.41
2023-02-08T03:04:32.388Z,-0.39
2023-02-08T03:07:14.356Z,-0.36
2023-02-08T03:10:04.632Z,-0.35
2023-02-08T03:12:57.887Z,-0.35
2023-02-08T03:15:40.081Z,-0.39
2023-02-08T03:18:36.359Z,-0.46
2023-02-08T03:21:13.142Z,-0.47
2023-02-08T03:23:59.408Z,-0.47
2023-02-08T03:26:36.200Z,-0.45
2023-02-08T03:29:15.617Z,-0.41
2023-02-08T03:32:01.002Z,-0.41
2023-02-08T03:34:51.148Z,-0.36
2023-02-08T03:37:33.048Z,-0.33
2023-02-08T03:40:12.852Z,-0.32
2023-02-08T03:42:41.357Z,-0.33
2023-02-08T03:45:40.450Z,-0.36
2023-02-08T03:48:11.503Z,-0.35
2023-02-08T03:50:41.082Z,-0.32
2023-02-08T03:53:10.760Z,-0.30
2023-02-08T03:55:42.035Z,-0.30
2023-02-08T03:58:39.016Z,-0.33
2023-02-08T04:01:36.902Z,-0.36
2023-02-08T04:04:05.354Z,-0.40
2023-02-08T04:06:33.457Z,-0.41
2023-02-08T04:09:01.354Z,-0.43
2023-02-08T04:11:29.333Z,-0.46
2023-02-08T04:13:57.178Z,-0.51
2023-02-08T04:16:25.066Z,-0.54
2023-02-08T04:18:52.992Z,-0.60
2023-02-08T04:21:20.894Z,-0.62
2023-02-08T04:23:48.760Z,-0.63
2023-02-08T04:26:16.665Z,-0.66
2023-02-08T04:28:44.945Z,-0.66
2023-02-08T04:31:12.975Z,-0.66
2023-02-08T04:33:41.421Z,-0.64
2023-02-08T04:36:09.582Z,-0.64
2023-02-08T04:38:37.568Z,-0.69
2023-02-08T04:41:05.590Z,-0.77
2023-02-08T04:43:33.534Z,-0.84
2023-02-08T04:46:01.929Z,-0.84
2023-02-08T04:48:30.113Z,-0.85
2023-02-08T04:50:58.658Z,-0.84
2023-02-08T04:53:26.902Z,-0.85
2023-02-08T04:55:54.823Z,-0.84
2023-02-08T04:58:23.234Z,-0.82
2023-02-08T05:00:51.249Z,-0.79
2023-02-08T05:03:19.556Z,-0.78
2023-02-08T05:05:47.389Z,-0.77
2023-02-08T05:08:15.290Z,-0.73
2023-02-08T05:10:46.218Z,-0.68
2023-02-08T05:13:14.104Z,-0.67
2023-02-08T05:15:42.216Z,-0.69
2023-02-08T05:18:10.262Z,-0.69
2023-02-08T05:20:38.238Z,-0.69
2023-02-08T05:23:06.297Z,-0.68
2023-02-08T05:25:34.269Z,-0.71
2023-02-08T05:28:03.123Z,-0.74
2023-02-08T05:30:31.612Z,-0.76
2023-02-08T05:32:59.632Z,-0.75
2023-02-08T05:35:27.502Z,-0.71
2023-02-08T05:37:55.360Z,-0.70
2023-02-08T05:40:23.273Z,-0.75
2023-02-08T05:42:51.181Z,-0.81
2023-02-08T05:45:19.091Z,-0.88
2023-02-08T05:47:49.551Z,-1.00
2023-02-08T05:50:17.477Z,-1.12
2023-02-08T05:52:45.442Z,-1.23
2023-02-08T05:55:13.323Z,-1.34
2023-02-08T05:57:41.213Z,-1.44
2023-02-08T06:00:09.997Z,-1.53
2023-02-08T06:02:44.069Z,-1.60
2023-02-08T06:05:12.051Z,-1.68
2023-02-08T06:07:39.853Z,-1.76
2023-02-08T06:10:11.090Z,-1.86
2023-02-08T06:12:39.302Z,-1.92
2023-02-08T06:15:07.628Z,-1.98
2023-02-08T06:17:35.501Z,-2.03
2023-02-08T06:20:04.470Z,-2.08
2023-02-08T06:22:34.972Z,-2.10
2023-02-08T06:25:03.466Z,-2.19
2023-02-08T06:27:31.491Z,-2.25
2023-02-08T06:29:59.432Z,-2.28
2023-02-08T06:32:27.573Z,-2.32
2023-02-08T06:34:55.793Z,-2.36
2023-02-08T06:37:23.819Z,-2.37
2023-02-08T06:39:51.684Z,-2.37
2023-02-08T06:42:19.592Z,-2.36
2023-02-08T06:44:55.193Z,-2.34
2023-02-08T06:47:24.927Z,-2.29
2023-02-08T06:49:53.271Z,-2.24
2023-02-08T06:52:21.656Z,-2.19
2023-02-08T06:54:49.567Z,-2.16
2023-02-08T06:57:17.495Z,-2.12
2023-02-08T06:59:45.663Z,-2.08
2023-02-08T07:02:16.138Z,-2.06
2023-02-08T07:04:45.403Z,-2.03
2023-02-08T07:07:14.144Z,-1.98
2023-02-08T07:09:42.829Z,-1.92
2023-02-08T07:12:11.124Z,-1.84
2023-02-08T07:14:41.791Z,-1.77
2023-02-08T07:17:11.139Z,-1.73
2023-02-08T07:19:39.433Z,-1.65
2023-02-08T07:22:10.735Z,-1.56
2023-02-08T07:24:41.191Z,-1.47
2023-02-08T07:27:11.317Z,-1.36
2023-02-08T07:29:39.957Z,-1.26
2023-02-08T07:32:08.541Z,-1.20
2023-02-08T07:34:38.041Z,-1.13
2023-02-08T07:37:06.913Z,-1.06
2023-02-08T07:39:34.927Z,-0.98
2023-02-08T07:42:03.023Z,-0.90
2023-02-08T07:44:32.681Z,-0.80
2023-02-08T07:47:02.042Z,-0.73
2023-02-08T07:49:30.400Z,-0.66
2023-02-08T07:52:02.148Z,-0.56
2023-02-08T07:54:30.126Z,-0.46
2023-02-08T07:56:58.033Z,-0.38
2023-02-08T07:59:25.924Z,-0.30
2023-02-08T08:01:53.788Z,-0.21
2023-02-08T08:04:22.145Z,-0.11
2023-02-08T08:06:51.509Z,-0.04
2023-02-08T08:09:20.407Z,-0.00
2023-02-08T08:11:48.306Z,0.04
2023-02-08T08:14:16.264Z,0.11
2023-02-08T08:16:44.355Z,0.12
2023-02-08T08:19:12.231Z,0.16
2023-02-08T08:21:40.574Z,0.23
2023-02-08T08:24:08.548Z,0.27
2023-02-08T08:26:36.522Z,0.33
2023-02-08T08:29:05.025Z,0.37
2023-02-08T08:31:33.067Z,0.45
2023-02-08T08:34:01.011Z,0.49
2023-02-08T08:36:29.154Z,0.50
2023-02-08T08:38:57.104Z,0.53
2023-02-08T08:41:27.282Z,0.56
2023-02-08T08:43:55.198Z,0.58
2023-02-08T08:46:23.265Z,0.60
2023-02-08T08:48:52.086Z,0.58
2023-02-08T08:51:20.115Z,0.53
2023-02-08T08:53:48.034Z,0.53
2023-02-08T08:56:16.204Z,0.51
2023-02-08T08:58:44.243Z,0.50
2023-02-08T09:01:13.979Z,0.49
2023-02-08T09:03:42.061Z,0.54
2023-02-08T09:06:10.155Z,0.61
2023-02-08T09:08:38.701Z,0.65
2023-02-08T09:11:12.568Z,0.72
2023-02-08T09:13:41.339Z,0.81
2023-02-08T09:16:14.078Z,0.84
2023-02-08T09:18:42.577Z,0.86
2023-02-08T09:21:16.797Z,0.89
2023-02-08T09:23:47.537Z,0.89
2023-02-08T09:26:17.944Z,0.93
2023-02-08T09:28:46.504Z,1.01
2023-02-08T09:31:25.231Z,1.09
2023-02-08T09:33:55.763Z,1.12
2023-02-08T09:36:25.530Z,1.18
2023-02-08T09:39:00.774Z,1.24
2023-02-08T09:41:54.712Z,1.27
2023-02-08T09:44:41.665Z,1.30
2023-02-08T09:47:36.126Z,1.29
2023-02-08T09:50:20.375Z,1.39
2023-02-08T09:53:13.024Z,1.59
2023-02-08T09:55:50.231Z,1.77
2023-02-08T09:58:26.419Z,1.86
2023-02-08T10:00:55.415Z,1.96
2023-02-08T10:03:39.357Z,2.08
2023-02-08T10:06:09.937Z,2.19
2023-02-08T10:08:39.660Z,2.32
2023-02-08T10:11:10.309Z,2.47
2023-02-08T10:13:53.148Z,2.62
2023-02-08T10:16:43.776Z,2.73
2023-02-08T10:19:43.193Z,2.86
2023-02-08T10:22:38.645Z,2.98
2023-02-08T10:25:23.789Z,3.08
2023-02-08T10:28:16.654Z,3.15
2023-02-08T10:31:17.496Z,3.15
2023-02-08T10:33:59.575Z,3.13
2023-02-08T10:36:32.103Z,3.13
2023-02-08T10:39:02.678Z,3.14
2023-02-08T10:41:36.714Z,3.15
2023-02-08T10:44:43.545Z,3.10
2023-02-08T10:47:23.864Z,3.06
2023-02-08T10:50:02.827Z,3.01
2023-02-08T10:52:31.079Z,3.01
2023-02-08T10:54:59.214Z,3.02
2023-02-08T10:57:34.306Z,3.03
2023-02-08T11:00:05.741Z,3.01
2023-02-08T11:02:38.800Z,3.01
2023-02-08T11:05:11.066Z,3.05
2023-02-08T11:07:39.490Z,3.10
2023-02-08T11:10:16.689Z,3.18
2023-02-08T11:12:57.441Z,3.32
2023-02-08T11:15:29.840Z,3.43
2023-02-08T11:18:01.332Z,3.58
2023-02-08T11:20:36.777Z,3.71
2023-02-08T11:23:26.951Z,3.78
2023-02-08T11:26:12.598Z,3.78
2023-02-08T11:28:41.728Z,3.83
2023-02-08T11:31:20.883Z,3.83
2023-02-08T11:34:11.519Z,3.81
2023-02-08T11:36:47.300Z,3.84
2023-02-08T11:39:27.318Z,3.90
2023-02-08T11:42:00.767Z,3.99
2023-02-08T11:44:43.223Z,4.15
2023-02-08T11:47:16.540Z,4.31
2023-02-08T11:49:55.200Z,4.40
2023-02-08T11:52:27.743Z,4.46
2023-02-08T11:55:13.224Z,4.48
2023-02-08T11:58:17.758Z,4.52
2023-02-08T12:00:58.024Z,4.56
2023-02-08T12:03:31.295Z,4.56
2023-02-08T12:06:26.389Z,4.49
2023-02-08T12:09:12.328Z,4.35
2023-02-08T12:11:50.304Z,4.25
2023-02-08T12:14:40.055Z,4.13
2023-02-08T12:17:34.166Z,3.92
2023-02-08T12:20:05.065Z,3.71
2023-02-08T12:22:39.557Z,3.59
2023-02-08T12:25:16.557Z,3.44
2023-02-08T12:28:09.630Z,3.26
2023-02-08T12:30:53.825Z,3.14
2023-02-08T12:33:37.760Z,3.09
2023-02-08T12:36:05.893Z,3.07
2023-02-08T12:39:19.950Z,3.04
2023-02-08T12:42:26.741Z,3.10
2023-02-08T12:45:15.323Z,3.19
2023-02-08T12:48:04.426Z,3.29
2023-02-08T12:50:46.260Z,3.41
2023-02-08T12:53:44.837Z,3.48
2023-02-08T12:56:18.888Z,3.58
2023-02-08T12:58:50.264Z,3.70
2023-02-08T13:01:24.463Z,3.79
2023-02-08T13:04:15.603Z,3.88
2023-02-08T13:06:58.150Z,3.89
2023-02-08T13:09:59.833Z,3.89
2023-02-08T13:12:33.099Z,3.86
2023-02-08T13:15:28.407Z,3.85
2023-02-08T13:18:01.373Z,3.86
2023-02-08T13:20:40.781Z,3.88
2023-02-08T13:23:30.474Z,3.85
2023-02-08T13:26:03.306Z,3.84
2023-02-08T13:28:31.261Z,3.85
2023-02-08T13:31:13.436Z,3.82
2023-02-08T13:34:00.776Z,3.79
2023-02-08T13:36:37.919Z,3.74
2023-02-08T13:39:09.560Z,3.70
2023-02-08T13:41:37.747Z,3.66
2023-02-08T13:44:08.463Z,3.61
2023-02-08T13:46:45.137Z,3.60
2023-02-08T13:49:43.226Z,3.62
2023-02-08T13:52:12.789Z,3.61
2023-02-08T13:54:40.662Z,3.57
2023-02-08T13:57:53.843Z,3.54
2023-02-08T14:00:28.790Z,3.45
2023-02-08T14:03:01.044Z,3.32
2023-02-08T14:05:47.347Z,3.29
2023-02-08T14:08:42.151Z,3.26
2023-02-08T14:11:39.026Z,3.22
2023-02-08T14:14:20.787Z,3.24
2023-02-08T14:17:03.814Z,3.22
2023-02-08T14:19:36.688Z,3.23
2023-02-08T14:22:08.410Z,3.25
2023-02-08T14:24:48.150Z,3.22
2023-02-08T14:27:28.610Z,3.15
2023-02-08T14:30:33.512Z,3.11
2023-02-08T14:33:04.242Z,3.08
2023-02-08T14:35:36.767Z,3.05
2023-02-08T14:38:19.878Z,3.03
2023-02-08T14:40:54.805Z,3.01
2023-02-08T14:43:37.846Z,2.99
2023-02-08T14:46:43.614Z,2.93
2023-02-08T14:49:19.273Z,2.86
2023-02-08T14:51:54.119Z,2.80
2023-02-08T14:54:32.676Z,2.72
2023-02-08T14:57:04.892Z,2.64
2023-02-08T14:59:34.941Z,2.60
2023-02-08T15:02:15.437Z,2.55
2023-02-08T15:04:45.460Z,2.47
2023-02-08T15:07:30.063Z,2.42
2023-02-08T15:10:04.117Z,2.35
2023-02-08T15:12:41.199Z,2.31
2023-02-08T15:15:32.745Z,2.23
2023-02-08T15:18:02.283Z,2.13
2023-02-08T15:20:33.710Z,2.07
2023-02-08T15:23:20.331Z,2.01
2023-02-08T15:26:22.370Z,1.94
2023-02-08T15:28:50.259Z,1.84
2023-02-08T15:31:21.852Z,1.77
2023-02-08T15:33:52.316Z,1.70
2023-02-08T15:36:30.203Z,1.64
2023-02-08T15:39:01.058Z,1.58
2023-02-08T15:41:32.270Z,1.51
2023-02-08T15:44:03.251Z,1.44
2023-02-08T15:46:32.123Z,1.38
2023-02-08T15:49:00.422Z,1.31
2023-02-08T15:51:29.246Z,1.24
2023-02-08T15:53:57.453Z,1.17
2023-02-08T15:56:38.709Z,1.09
2023-02-08T15:59:18.552Z,1.01
2023-02-08T16:01:47.809Z,0.93
2023-02-08T16:04:16.133Z,0.83
2023-02-08T16:06:57.002Z,0.77
2023-02-08T16:09:29.793Z,0.69
2023-02-08T16:12:00.564Z,0.62
2023-02-08T16:14:30.853Z,0.56
2023-02-08T16:17:00.141Z,0.47
2023-02-08T16:19:33.936Z,0.38
2023-02-08T16:22:32.748Z,0.31
2023-02-08T16:25:25.556Z,0.24
2023-02-08T16:27:53.657Z,0.17
2023-02-08T16:30:22.872Z,0.10
2023-02-08T16:32:50.969Z,0.06
2023-02-08T16:35:29.570Z,0.00
2023-02-08T16:38:00.595Z,-0.07
2023-02-08T16:40:51.757Z,-0.15
2023-02-08T16:43:31.731Z,-0.20
2023-02-08T16:46:25.353Z,-0.25
2023-02-08T16:48:55.880Z,-0.30
2023-02-08T16:51:27.345Z,-0.35
2023-02-08T16:54:00.657Z,-0.39
2023-02-08T16:56:29.124Z,-0.42
2023-02-08T16:58:56.999Z,-0.47
2023-02-08T17:01:26.353Z,-0.51
2023-02-08T17:03:54.684Z,-0.54
2023-02-08T17:06:32.346Z,-0.58
2023-02-08T17:09:02.000Z,-0.62
2023-02-08T17:11:30.390Z,-0.63
2023-02-08T17:13:58.811Z,-0.68
2023-02-08T17:16:31.921Z,-0.73
2023-02-08T17:19:03.706Z,-0.78
2023-02-08T17:21:31.642Z,-0.81
2023-02-08T17:23:59.994Z,-0.85
2023-02-08T17:26:32.250Z,-0.87
2023-02-08T17:29:00.367Z,-0.90
2023-02-08T17:31:31.171Z,-0.95
2023-02-08T17:34:04.384Z,-0.97
2023-02-08T17:36:35.128Z,-1.01
2023-02-08T17:39:05.407Z,-1.04
2023-02-08T17:41:33.469Z,-1.07
2023-02-08T17:44:01.595Z,-1.11
2023-02-08T17:46:32.877Z,-1.15
2023-02-08T17:49:01.756Z,-1.18
2023-02-08T17:51:30.432Z,-1.18
2023-02-08T17:53:58.866Z,-1.22
2023-02-08T17:56:28.597Z,-1.25
2023-02-08T17:58:56.636Z,-1.26
2023-02-08T18:01:27.167Z,-1.26
2023-02-08T18:03:55.253Z,-1.29
2023-02-08T18:06:25.013Z,-1.30
2023-02-08T18:08:54.817Z,-1.30
2023-02-08T18:11:24.008Z,-1.35
2023-02-08T18:13:53.910Z,-1.38
2023-02-08T18:16:25.316Z,-1.40
2023-02-08T18:19:01.228Z,-1.43
2023-02-08T18:21:33.520Z,-1.45
2023-02-08T18:24:03.179Z,-1.47
2023-02-08T18:26:34.391Z,-1.50
2023-02-08T18:29:02.864Z,-1.52
2023-02-08T18:31:31.786Z,-1.55
2023-02-08T18:34:00.226Z,-1.60
2023-02-08T18:36:28.120Z,-1.61
2023-02-08T18:38:56.979Z,-1.63
2023-02-08T18:41:27.062Z,-1.65
2023-02-08T18:43:57.240Z,-1.68
2023-02-08T18:46:26.825Z,-1.71
2023-02-08T18:48:55.426Z,-1.72
2023-02-08T18:51:24.737Z,-1.65
2023-02-08T18:53:55.305Z,-1.27
2023-02-08T18:56:25.303Z,-1.23
2023-02-08T18:58:54.899Z,-1.34
2023-02-08T19:01:24.592Z,-1.45
2023-02-08T19:03:53.480Z,-1.53
2023-02-08T19:06:25.065Z,-1.58
2023-02-08T19:08:55.765Z,-1.64
2023-02-08T19:11:34.114Z,-1.70
2023-02-08T19:14:04.621Z,-1.76
2023-02-08T19:16:35.245Z,-1.81
2023-02-08T19:19:05.427Z,-1.84
2023-02-08T19:21:34.199Z,-1.86
2023-02-08T19:24:05.180Z,-1.86
2023-02-08T19:26:36.951Z,-1.86
2023-02-08T19:29:07.349Z,-1.86
2023-02-08T19:31:35.633Z,-1.89
2023-02-08T19:34:04.741Z,-1.90
2023-02-08T19:36:38.214Z,-1.92
2023-02-08T19:39:07.360Z,-1.93
2023-02-08T19:41:39.482Z,-1.92
2023-02-08T19:44:09.540Z,-1.94
2023-02-08T19:46:40.366Z,-1.96
2023-02-08T19:49:08.343Z,-1.99
2023-02-08T19:51:37.145Z,-1.99
2023-02-08T19:54:08.508Z,-1.98
2023-02-08T19:56:37.310Z,-1.98
2023-02-08T19:59:07.513Z,-1.98
2023-02-08T20:01:36.228Z,-2.00
2023-02-08T20:04:05.752Z,-2.03
2023-02-08T20:06:38.770Z,-2.05
2023-02-08T20:09:07.922Z,-2.05
2023-02-08T20:11:51.228Z,-2.05
2023-02-08T20:14:31.245Z,-2.08
2023-02-08T20:17:00.498Z,-2.10
2023-02-08T20:19:29.242Z,-2.13
2023-02-08T20:21:57.147Z,-2.16
2023-02-08T20:24:25.360Z,-2.18
2023-02-08T20:26:53.400Z,-2.21
2023-02-08T20:29:21.461Z,-2.27
2023-02-08T20:31:53.583Z,-2.29
2023-02-08T20:34:21.669Z,-2.33
2023-02-08T20:37:05.842Z,-2.36
2023-02-08T20:39:38.799Z,-2.40
2023-02-08T20:42:06.773Z,-2.44
2023-02-08T20:44:34.764Z,-2.45
2023-02-08T20:47:02.656Z,-2.46
2023-02-08T20:49:32.281Z,-2.45
2023-02-08T20:52:00.644Z,-2.47
2023-02-08T20:54:28.761Z,-2.49
2023-02-08T20:56:57.695Z,-2.52
2023-02-08T20:59:25.839Z,-2.52
2023-02-08T21:01:54.192Z,-2.55
2023-02-08T21:04:26.360Z,-2.58
2023-02-08T21:06:54.201Z,-2.59
2023-02-08T21:09:22.200Z,-2.60
2023-02-08T21:11:51.182Z,-2.61
2023-02-08T21:14:21.406Z,-2.61
2023-02-08T21:16:56.283Z,-2.61
2023-02-08T21:19:28.027Z,-2.60
2023-02-08T21:21:59.824Z,-2.59
2023-02-08T21:24:28.433Z,-2.60
2023-02-08T21:26:57.196Z,-2.61
2023-02-08T21:29:25.740Z,-2.61
2023-02-08T21:31:54.684Z,-2.63
2023-02-08T21:34:23.131Z,-2.64
2023-02-08T21:36:51.187Z,-2.67
2023-02-08T21:39:19.203Z,-2.68
2023-02-08T21:41:48.244Z,-2.70
2023-02-08T21:44:16.235Z,-2.71
2023-02-08T21:46:44.232Z,-2.69
2023-02-08T21:49:30.630Z,-2.67
2023-02-08T21:52:16.901Z,-2.66
2023-02-08T21:54:45.754Z,-2.64
2023-02-08T21:57:15.161Z,-2.62
2023-02-08T21:59:43.582Z,-2.61
2023-02-08T22:02:24.635Z,-2.60
2023-02-08T22:05:12.753Z,-2.62
2023-02-08T22:07:44.535Z,-2.67
2023-02-08T22:10:14.172Z,-2.68
2023-02-08T22:12:42.439Z,-2.71
2023-02-08T22:15:16.436Z,-2.73
2023-02-08T22:17:45.228Z,-2.74
2023-02-08T22:20:15.154Z,-2.75
2023-02-08T22:22:43.094Z,-2.76
2023-02-08T22:25:11.432Z,-2.77
2023-02-08T22:27:39.372Z,-2.75
2023-02-08T22:30:10.263Z,-2.75
2023-02-08T22:32:42.816Z,-2.75
2023-02-08T22:35:11.812Z,-2.72
2023-02-08T22:37:39.877Z,-2.69
2023-02-08T22:40:10.919Z,-2.64
2023-02-08T22:42:40.386Z,-2.63
2023-02-08T22:45:08.977Z,-2.64
2023-02-08T22:47:37.502Z,-2.65
2023-02-08T22:50:07.174Z,-2.67
2023-02-08T22:52:35.280Z,-2.65
2023-02-08T22:55:04.333Z,-2.62
2023-02-08T22:57:33.662Z,-2.61
2023-02-08T23:00:02.277Z,-2.58
2023-02-08T23:02:30.516Z,-2.56
2023-02-08T23:04:58.510Z,-2.57
2023-02-08T23:07:26.391Z,-2.56
2023-02-08T23:09:54.407Z,-2.57
2023-02-08T23:12:22.374Z,-2.57
2023-02-08T23:14:51.083Z,-2.54
2023-02-08T23:17:19.001Z,-2.52
2023-02-08T23:19:47.144Z,-2.51
2023-02-08T23:22:15.029Z,-2.51
2023-02-08T23:24:42.977Z,-2.50
2023-02-08T23:27:11.472Z,-2.47
2023-02-08T23:29:39.424Z,-2.43
2023-02-08T23:32:07.471Z,-2.42
2023-02-08T23:34:35.421Z,-2.43
2023-02-08T23:37:03.429Z,-2.41
2023-02-08T23:39:34.124Z,-2.42
2023-02-08T23:42:02.081Z,-2.40
2023-02-08T23:44:30.020Z,-2.41
2023-02-08T23:46:57.960Z,-2.42
2023-02-08T23:49:25.875Z,-2.39
2023-02-08T23:51:53.774Z,-2.38
2023-02-08T23:54:21.669Z,-2.36
2023-02-08T23:56:51.940Z,-2.35
2023-02-08T23:59:19.879Z,-2.40
